Terminal Aerodrome Forecast
Issued by NWS Tuscon, AZ

Home | Current Version | Previous Version | Text Only | Print | Product List | Glossary On
Versions: 1 2 3 4 5 6 7 8 9 10 11 12 13 14
000
FTUS45 KTWC 222333
TAFTUS
TAF
KTUS 222333Z 2300/2324 29010G16KT P6SM SKC
     FM230400 25006KT P6SM FEW150
     FM230900 17005KT P6SM FEW150
     FM231500 29008KT P6SM FEW150
     FM231900 31010G16KT P6SM FEW150=

USA.gov is the U.S. government's official web portal to all federal, state and local government web resources and services.